Strona główna
METAR-TAF:

METAR-TAF

Lotnisko :

Caracas, Wenezuela

Port lotniczy Caracas

Szerokość geograficzna: 10-36N, Długość geograficzna: 066-59W, wysokość: 43 m

Aktualna obserwacja pogody

Raport powstał 54 minut temu, godzina 07:00 UTC
Cisza
Temperatura 24°C
Wilgotność 83%
Ciśnienie 1012 hPa
Widzialność 10 km lub więcej
Rozproszone chmury na wysokości 1600 ft

METAR: SVMI 160700Z 00000KT 9999 SCT016 24/21 Q1012

czas: 03:54 (07:54 UTC)

Prognoza

Raport powstał 5 godziny i 8 minut temu, godzina 02:46 UTC
Prognoza ważna od 16 godzina 06 UTC do 17 godzina 06 UTC
Wiatr kt od północ
Widzialność 10 km lub więcej
Mało chmury na wysokości 1600 ft
Od 16 godzina 0800 UTC
Wiatr kt od północ
Widzialność 10 km lub więcej
Mało chmury na wysokości 1600 ft

TAF: SVMI 160246Z 1606/1706 00000KT 9999 FEW016 TX30/18Z TN24/06Z FM160800 00000KT 9999 FEW016 SCT10

Obserwacja i prognoza pogody dla ponad 4000 lotnisk (raport METAR i TAF).

Dostępne stacje oznaczono żółtymi i czerwonymi punktami na mapie.

Najedź kursorem aby zobaczyć nazwę stacji.

Kliknij aby zobaczyć obserwacje i prognozy pogody.

Aby zmienić mapę: kliknij na zielony przycisk z czarnym krzyżykiem, aby powiększyć; na zielony przycisk z myślnikiem, aby pomniejszyć; na zielone strzałki, aby przejść do map sąsiednich.


METAR-TAF: